sensor_id;sensor_type;location;lat;lon;timestamp;P1;durP1;ratioP1;P2;durP2;ratioP2
60014;SDS011;45867;52.480;6.056;2023-05-10T00:02:22;27.17;;;13.35;;
60014;SDS011;45867;52.480;6.056;2023-05-10T00:04:48;24.17;;;11.82;;
60014;SDS011;45867;52.480;6.056;2023-05-10T00:07:13;26.42;;;13.07;;
60014;SDS011;45867;52.480;6.056;2023-05-10T00:09:38;25.88;;;12.98;;
60014;SDS011;45867;52.480;6.056;2023-05-10T00:12:05;29.85;;;13.93;;
60014;SDS011;45867;52.480;6.056;2023-05-10T00:14:30;29.63;;;13.65;;
60014;SDS011;45867;52.480;6.056;2023-05-10T00:16:55;31.33;;;13.75;;
60014;SDS011;45867;52.480;6.056;2023-05-10T00:19:21;30.80;;;13.88;;
60014;SDS011;45867;52.480;6.056;2023-05-10T00:21:46;28.80;;;13.32;;
60014;SDS011;45867;52.480;6.056;2023-05-10T00:24:12;29.95;;;14.18;;
60014;SDS011;45867;52.480;6.056;2023-05-10T00:26:37;28.42;;;13.00;;
60014;SDS011;45867;52.480;6.056;2023-05-10T00:29:02;28.05;;;13.43;;
60014;SDS011;45867;52.480;6.056;2023-05-10T00:31:28;34.45;;;14.52;;
60014;SDS011;45867;52.480;6.056;2023-05-10T00:33:53;31.95;;;14.35;;
60014;SDS011;45867;52.480;6.056;2023-05-10T00:36:18;34.60;;;14.50;;
60014;SDS011;45867;52.480;6.056;2023-05-10T00:38:44;32.28;;;14.48;;
60014;SDS011;45867;52.480;6.056;2023-05-10T00:41:09;36.40;;;14.75;;
60014;SDS011;45867;52.480;6.056;2023-05-10T00:43:34;37.00;;;15.02;;
60014;SDS011;45867;52.480;6.056;2023-05-10T00:46:00;32.78;;;15.23;;
60014;SDS011;45867;52.480;6.056;2023-05-10T00:48:26;40.10;;;14.73;;
60014;SDS011;45867;52.480;6.056;2023-05-10T00:50:51;37.75;;;14.50;;
60014;SDS011;45867;52.480;6.056;2023-05-10T00:53:19;37.08;;;15.43;;
60014;SDS011;45867;52.480;6.056;2023-05-10T00:55:44;35.85;;;14.45;;
60014;SDS011;45867;52.480;6.056;2023-05-10T00:58:10;34.72;;;14.82;;
60014;SDS011;45867;52.480;6.056;2023-05-10T01:00:35;38.55;;;15.13;;
60014;SDS011;45867;52.480;6.056;2023-05-10T01:03:02;34.53;;;14.48;;
60014;SDS011;45867;52.480;6.056;2023-05-10T01:05:27;32.08;;;13.95;;
60014;SDS011;45867;52.480;6.056;2023-05-10T01:07:53;34.72;;;14.18;;
60014;SDS011;45867;52.480;6.056;2023-05-10T01:10:18;34.58;;;14.60;;
60014;SDS011;45867;52.480;6.056;2023-05-10T01:12:44;37.42;;;14.43;;
60014;SDS011;45867;52.480;6.056;2023-05-10T01:15:12;33.13;;;14.02;;
60014;SDS011;45867;52.480;6.056;2023-05-10T01:17:40;36.08;;;14.18;;
60014;SDS011;45867;52.480;6.056;2023-05-10T01:20:08;38.30;;;15.13;;
60014;SDS011;45867;52.480;6.056;2023-05-10T01:22:50;39.00;;;15.20;;
60014;SDS011;45867;52.480;6.056;2023-05-10T01:33:39;35.92;;;15.30;;
60014;SDS011;45867;52.480;6.056;2023-05-10T01:36:20;34.88;;;15.85;;
60014;SDS011;45867;52.480;6.056;2023-05-10T01:39:04;39.38;;;16.08;;
60014;SDS011;45867;52.480;6.056;2023-05-10T01:44:37;40.55;;;15.40;;
60014;SDS011;45867;52.480;6.056;2023-05-10T01:47:17;35.50;;;14.70;;
60014;SDS011;45867;52.480;6.056;2023-05-10T01:49:50;32.50;;;14.52;;
60014;SDS011;45867;52.480;6.056;2023-05-10T01:52:18;36.53;;;15.43;;
60014;SDS011;45867;52.480;6.056;2023-05-10T01:54:53;40.97;;;15.70;;
60014;SDS011;45867;52.480;6.056;2023-05-10T01:57:26;37.67;;;15.45;;
60014;SDS011;45867;52.480;6.056;2023-05-10T01:59:55;35.35;;;15.18;;
60014;SDS011;45867;52.480;6.056;2023-05-10T02:02:22;38.53;;;15.55;;
60014;SDS011;45867;52.480;6.056;2023-05-10T02:04:49;41.92;;;15.60;;
60014;SDS011;45867;52.480;6.056;2023-05-10T02:07:16;33.00;;;15.20;;
60014;SDS011;45867;52.480;6.056;2023-05-10T02:09:44;34.42;;;14.35;;
60014;SDS011;45867;52.480;6.056;2023-05-10T02:12:12;34.25;;;14.73;;
60014;SDS011;45867;52.480;6.056;2023-05-10T02:14:40;35.88;;;14.45;;
60014;SDS011;45867;52.480;6.056;2023-05-10T02:17:07;31.70;;;13.75;;
60014;SDS011;45867;52.480;6.056;2023-05-10T02:19:35;35.85;;;15.02;;
60014;SDS011;45867;52.480;6.056;2023-05-10T02:22:03;34.83;;;14.23;;
60014;SDS011;45867;52.480;6.056;2023-05-10T02:24:30;40.72;;;14.93;;
60014;SDS011;45867;52.480;6.056;2023-05-10T02:26:58;36.80;;;14.45;;
60014;SDS011;45867;52.480;6.056;2023-05-10T02:29:27;41.10;;;15.70;;
60014;SDS011;45867;52.480;6.056;2023-05-10T02:31:54;38.03;;;15.00;;
60014;SDS011;45867;52.480;6.056;2023-05-10T02:34:24;44.97;;;15.50;;
60014;SDS011;45867;52.480;6.056;2023-05-10T02:36:51;41.63;;;15.20;;
60014;SDS011;45867;52.480;6.056;2023-05-10T02:39:18;43.45;;;16.42;;
60014;SDS011;45867;52.480;6.056;2023-05-10T02:41:44;42.70;;;16.45;;
60014;SDS011;45867;52.480;6.056;2023-05-10T02:44:11;45.47;;;16.85;;
60014;SDS011;45867;52.480;6.056;2023-05-10T02:46:40;44.47;;;16.67;;
60014;SDS011;45867;52.480;6.056;2023-05-10T02:49:05;46.00;;;16.88;;
60014;SDS011;45867;52.480;6.056;2023-05-10T02:51:32;42.65;;;16.65;;
60014;SDS011;45867;52.480;6.056;2023-05-10T02:54:22;45.47;;;16.77;;
60014;SDS011;45867;52.480;6.056;2023-05-10T02:56:53;48.13;;;17.75;;
60014;SDS011;45867;52.480;6.056;2023-05-10T02:59:22;46.95;;;17.63;;
60014;SDS011;45867;52.480;6.056;2023-05-10T03:01:47;54.00;;;18.10;;
60014;SDS011;45867;52.480;6.056;2023-05-10T03:04:12;44.22;;;17.88;;
60014;SDS011;45867;52.480;6.056;2023-05-10T03:06:38;56.03;;;17.88;;
60014;SDS011;45867;52.480;6.056;2023-05-10T03:09:04;47.38;;;16.05;;
60014;SDS011;45867;52.480;6.056;2023-05-10T03:16:41;46.80;;;17.83;;
60014;SDS011;45867;52.480;6.056;2023-05-10T03:19:15;44.17;;;17.67;;
60014;SDS011;45867;52.480;6.056;2023-05-10T03:21:49;44.83;;;17.35;;
60014;SDS011;45867;52.480;6.056;2023-05-10T03:24:16;44.38;;;17.40;;
60014;SDS011;45867;52.480;6.056;2023-05-10T03:26:45;48.13;;;18.77;;
60014;SDS011;45867;52.480;6.056;2023-05-10T03:29:11;44.63;;;17.38;;
60014;SDS011;45867;52.480;6.056;2023-05-10T03:31:38;56.22;;;18.75;;
60014;SDS011;45867;52.480;6.056;2023-05-10T03:34:04;45.78;;;18.30;;
60014;SDS011;45867;52.480;6.056;2023-05-10T03:36:29;44.58;;;17.95;;
60014;SDS011;45867;52.480;6.056;2023-05-10T03:38:54;54.42;;;19.25;;
60014;SDS011;45867;52.480;6.056;2023-05-10T03:41:19;54.45;;;18.45;;
60014;SDS011;45867;52.480;6.056;2023-05-10T03:43:45;52.67;;;18.98;;
60014;SDS011;45867;52.480;6.056;2023-05-10T03:46:10;57.50;;;20.00;;
60014;SDS011;45867;52.480;6.056;2023-05-10T03:48:36;62.63;;;20.90;;
60014;SDS011;45867;52.480;6.056;2023-05-10T03:51:01;57.33;;;21.42;;
60014;SDS011;45867;52.480;6.056;2023-05-10T03:53:27;58.35;;;21.52;;
60014;SDS011;45867;52.480;6.056;2023-05-10T03:55:52;63.95;;;23.23;;
60014;SDS011;45867;52.480;6.056;2023-05-10T03:58:18;58.50;;;21.73;;
60014;SDS011;45867;52.480;6.056;2023-05-10T04:00:43;61.53;;;21.40;;
60014;SDS011;45867;52.480;6.056;2023-05-10T04:03:10;58.45;;;21.90;;
60014;SDS011;45867;52.480;6.056;2023-05-10T04:05:36;62.97;;;21.13;;
60014;SDS011;45867;52.480;6.056;2023-05-10T04:08:02;59.30;;;20.65;;
60014;SDS011;45867;52.480;6.056;2023-05-10T04:10:28;63.85;;;22.27;;
60014;SDS011;45867;52.480;6.056;2023-05-10T04:12:53;65.15;;;21.92;;
60014;SDS011;45867;52.480;6.056;2023-05-10T04:15:19;63.10;;;23.10;;
60014;SDS011;45867;52.480;6.056;2023-05-10T04:17:44;64.55;;;22.67;;
60014;SDS011;45867;52.480;6.056;2023-05-10T04:20:09;69.00;;;22.08;;
60014;SDS011;45867;52.480;6.056;2023-05-10T04:22:35;67.30;;;23.85;;
60014;SDS011;45867;52.480;6.056;2023-05-10T04:25:01;69.10;;;24.75;;
60014;SDS011;45867;52.480;6.056;2023-05-10T04:27:26;70.25;;;24.55;;
60014;SDS011;45867;52.480;6.056;2023-05-10T04:29:52;72.55;;;25.17;;
60014;SDS011;45867;52.480;6.056;2023-05-10T04:32:17;80.07;;;25.52;;
60014;SDS011;45867;52.480;6.056;2023-05-10T04:34:43;86.20;;;27.27;;
60014;SDS011;45867;52.480;6.056;2023-05-10T04:37:08;83.50;;;26.45;;
60014;SDS011;45867;52.480;6.056;2023-05-10T04:39:34;70.85;;;24.00;;
60014;SDS011;45867;52.480;6.056;2023-05-10T04:42:00;72.70;;;26.35;;
60014;SDS011;45867;52.480;6.056;2023-05-10T04:44:25;76.20;;;26.27;;
60014;SDS011;45867;52.480;6.056;2023-05-10T04:46:51;81.40;;;28.48;;
60014;SDS011;45867;52.480;6.056;2023-05-10T04:49:16;96.75;;;28.90;;
60014;SDS011;45867;52.480;6.056;2023-05-10T04:51:42;102.60;;;29.77;;
60014;SDS011;45867;52.480;6.056;2023-05-10T04:54:08;87.68;;;30.38;;
60014;SDS011;45867;52.480;6.056;2023-05-10T04:56:33;79.13;;;26.40;;
60014;SDS011;45867;52.480;6.056;2023-05-10T04:58:58;69.10;;;25.20;;
60014;SDS011;45867;52.480;6.056;2023-05-10T05:01:24;64.55;;;22.67;;
60014;SDS011;45867;52.480;6.056;2023-05-10T05:03:49;62.55;;;22.83;;
60014;SDS011;45867;52.480;6.056;2023-05-10T05:06:15;63.25;;;22.05;;
60014;SDS011;45867;52.480;6.056;2023-05-10T05:08:40;57.50;;;19.38;;
60014;SDS011;45867;52.480;6.056;2023-05-10T05:11:08;50.53;;;17.63;;
60014;SDS011;45867;52.480;6.056;2023-05-10T05:13:33;46.45;;;17.70;;
60014;SDS011;45867;52.480;6.056;2023-05-10T05:16:00;41.47;;;16.70;;
60014;SDS011;45867;52.480;6.056;2023-05-10T05:18:28;48.63;;;17.15;;
60014;SDS011;45867;52.480;6.056;2023-05-10T05:20:54;40.38;;;16.48;;
60014;SDS011;45867;52.480;6.056;2023-05-10T05:23:19;39.08;;;16.25;;
60014;SDS011;45867;52.480;6.056;2023-05-10T05:25:45;43.05;;;16.73;;
60014;SDS011;45867;52.480;6.056;2023-05-10T05:28:11;37.45;;;15.40;;
60014;SDS011;45867;52.480;6.056;2023-05-10T05:30:36;38.63;;;14.93;;
60014;SDS011;45867;52.480;6.056;2023-05-10T05:33:02;30.75;;;15.13;;
60014;SDS011;45867;52.480;6.056;2023-05-10T05:35:27;38.92;;;16.42;;
60014;SDS011;45867;52.480;6.056;2023-05-10T05:37:53;35.53;;;15.25;;
60014;SDS011;45867;52.480;6.056;2023-05-10T05:40:18;35.35;;;15.23;;
60014;SDS011;45867;52.480;6.056;2023-05-10T05:42:43;37.92;;;15.38;;
60014;SDS011;45867;52.480;6.056;2023-05-10T05:45:12;38.00;;;15.45;;
60014;SDS011;45867;52.480;6.056;2023-05-10T05:47:40;36.05;;;15.45;;
60014;SDS011;45867;52.480;6.056;2023-05-10T05:50:06;36.65;;;15.18;;
60014;SDS011;45867;52.480;6.056;2023-05-10T05:52:31;33.03;;;14.63;;
60014;SDS011;45867;52.480;6.056;2023-05-10T05:54:56;36.67;;;15.43;;
60014;SDS011;45867;52.480;6.056;2023-05-10T05:57:22;39.08;;;15.13;;
60014;SDS011;45867;52.480;6.056;2023-05-10T05:59:47;32.90;;;14.73;;
60014;SDS011;45867;52.480;6.056;2023-05-10T06:02:13;43.50;;;15.65;;
60014;SDS011;45867;52.480;6.056;2023-05-10T06:04:38;34.63;;;14.82;;
60014;SDS011;45867;52.480;6.056;2023-05-10T06:07:03;42.95;;;16.85;;
60014;SDS011;45867;52.480;6.056;2023-05-10T06:09:29;46.20;;;16.63;;
60014;SDS011;45867;52.480;6.056;2023-05-10T06:11:54;41.67;;;15.70;;
60014;SDS011;45867;52.480;6.056;2023-05-10T06:14:20;45.58;;;16.67;;
60014;SDS011;45867;52.480;6.056;2023-05-10T06:16:45;47.58;;;17.00;;
60014;SDS011;45867;52.480;6.056;2023-05-10T06:19:11;41.17;;;16.95;;
60014;SDS011;45867;52.480;6.056;2023-05-10T06:21:36;45.15;;;17.73;;
60014;SDS011;45867;52.480;6.056;2023-05-10T06:24:01;44.13;;;16.00;;
60014;SDS011;45867;52.480;6.056;2023-05-10T06:26:27;47.63;;;18.05;;
60014;SDS011;45867;52.480;6.056;2023-05-10T06:28:53;46.90;;;18.02;;
60014;SDS011;45867;52.480;6.056;2023-05-10T06:31:18;47.53;;;18.60;;
60014;SDS011;45867;52.480;6.056;2023-05-10T06:33:43;43.63;;;18.13;;
60014;SDS011;45867;52.480;6.056;2023-05-10T06:36:09;41.60;;;17.52;;
60014;SDS011;45867;52.480;6.056;2023-05-10T06:38:34;46.65;;;17.77;;
60014;SDS011;45867;52.480;6.056;2023-05-10T06:40:59;46.38;;;16.75;;
60014;SDS011;45867;52.480;6.056;2023-05-10T06:43:25;46.80;;;18.73;;
60014;SDS011;45867;52.480;6.056;2023-05-10T06:45:51;46.67;;;18.95;;
60014;SDS011;45867;52.480;6.056;2023-05-10T06:48:16;48.63;;;19.13;;
60014;SDS011;45867;52.480;6.056;2023-05-10T06:50:42;40.33;;;16.23;;
60014;SDS011;45867;52.480;6.056;2023-05-10T06:53:07;47.28;;;16.17;;
60014;SDS011;45867;52.480;6.056;2023-05-10T06:55:32;44.35;;;16.25;;
60014;SDS011;45867;52.480;6.056;2023-05-10T06:57:58;34.67;;;13.77;;
60014;SDS011;45867;52.480;6.056;2023-05-10T07:00:23;32.50;;;12.45;;
60014;SDS011;45867;52.480;6.056;2023-05-10T07:02:49;26.70;;;11.23;;
60014;SDS011;45867;52.480;6.056;2023-05-10T07:05:14;28.40;;;11.52;;
60014;SDS011;45867;52.480;6.056;2023-05-10T07:07:40;20.85;;;10.48;;
60014;SDS011;45867;52.480;6.056;2023-05-10T07:10:05;32.65;;;11.02;;
60014;SDS011;45867;52.480;6.056;2023-05-10T07:12:32;26.42;;;10.63;;
60014;SDS011;45867;52.480;6.056;2023-05-10T07:14:57;20.50;;;8.35;;
60014;SDS011;45867;52.480;6.056;2023-05-10T07:17:22;19.40;;;9.02;;
60014;SDS011;45867;52.480;6.056;2023-05-10T07:19:48;20.85;;;9.45;;
60014;SDS011;45867;52.480;6.056;2023-05-10T07:22:13;24.90;;;8.95;;
60014;SDS011;45867;52.480;6.056;2023-05-10T07:24:39;19.77;;;9.38;;
60014;SDS011;45867;52.480;6.056;2023-05-10T07:27:05;22.75;;;9.65;;
60014;SDS011;45867;52.480;6.056;2023-05-10T07:29:30;14.32;;;8.27;;
60014;SDS011;45867;52.480;6.056;2023-05-10T07:31:56;17.35;;;8.20;;
60014;SDS011;45867;52.480;6.056;2023-05-10T07:34:21;17.77;;;7.68;;
60014;SDS011;45867;52.480;6.056;2023-05-10T07:36:46;20.38;;;8.35;;
60014;SDS011;45867;52.480;6.056;2023-05-10T07:39:12;17.67;;;8.25;;
60014;SDS011;45867;52.480;6.056;2023-05-10T07:41:37;19.58;;;8.70;;
60014;SDS011;45867;52.480;6.056;2023-05-10T07:44:03;17.70;;;8.07;;
60014;SDS011;45867;52.480;6.056;2023-05-10T07:46:29;20.42;;;8.48;;
60014;SDS011;45867;52.480;6.056;2023-05-10T07:48:54;19.90;;;8.73;;
60014;SDS011;45867;52.480;6.056;2023-05-10T07:51:20;18.65;;;8.32;;
60014;SDS011;45867;52.480;6.056;2023-05-10T07:53:46;18.92;;;8.73;;
60014;SDS011;45867;52.480;6.056;2023-05-10T07:58:45;24.60;;;9.13;;
60014;SDS011;45867;52.480;6.056;2023-05-10T08:01:11;17.10;;;8.48;;
60014;SDS011;45867;52.480;6.056;2023-05-10T08:03:36;18.25;;;9.40;;
60014;SDS011;45867;52.480;6.056;2023-05-10T08:06:01;20.65;;;8.70;;
60014;SDS011;45867;52.480;6.056;2023-05-10T08:08:27;16.25;;;8.50;;
60014;SDS011;45867;52.480;6.056;2023-05-10T08:10:52;17.40;;;8.45;;
60014;SDS011;45867;52.480;6.056;2023-05-10T08:13:17;20.25;;;9.40;;
60014;SDS011;45867;52.480;6.056;2023-05-10T08:15:43;17.05;;;8.98;;
60014;SDS011;45867;52.480;6.056;2023-05-10T08:18:08;15.90;;;8.85;;
60014;SDS011;45867;52.480;6.056;2023-05-10T08:20:33;21.95;;;8.25;;
60014;SDS011;45867;52.480;6.056;2023-05-10T08:22:59;19.50;;;8.68;;
60014;SDS011;45867;52.480;6.056;2023-05-10T08:25:24;19.83;;;8.50;;
60014;SDS011;45867;52.480;6.056;2023-05-10T08:27:49;15.93;;;8.15;;
60014;SDS011;45867;52.480;6.056;2023-05-10T08:30:15;16.25;;;8.20;;
60014;SDS011;45867;52.480;6.056;2023-05-10T08:32:41;15.98;;;6.90;;
60014;SDS011;45867;52.480;6.056;2023-05-10T08:35:06;12.32;;;6.93;;
60014;SDS011;45867;52.480;6.056;2023-05-10T08:37:31;20.85;;;7.53;;
60014;SDS011;45867;52.480;6.056;2023-05-10T08:39:58;16.08;;;7.20;;
60014;SDS011;45867;52.480;6.056;2023-05-10T08:42:23;17.33;;;7.18;;
60014;SDS011;45867;52.480;6.056;2023-05-10T08:44:53;12.55;;;6.18;;
60014;SDS011;45867;52.480;6.056;2023-05-10T08:47:19;11.77;;;6.30;;
60014;SDS011;45867;52.480;6.056;2023-05-10T08:49:45;12.18;;;6.25;;
60014;SDS011;45867;52.480;6.056;2023-05-10T08:52:15;13.38;;;6.80;;
60014;SDS011;45867;52.480;6.056;2023-05-10T08:54:42;15.48;;;7.72;;
60014;SDS011;45867;52.480;6.056;2023-05-10T08:57:07;13.00;;;6.93;;
60014;SDS011;45867;52.480;6.056;2023-05-10T08:59:33;18.90;;;8.02;;
60014;SDS011;45867;52.480;6.056;2023-05-10T09:01:58;15.40;;;8.25;;
60014;SDS011;45867;52.480;6.056;2023-05-10T09:04:24;14.85;;;7.78;;
60014;SDS011;45867;52.480;6.056;2023-05-10T09:06:50;17.55;;;7.50;;
60014;SDS011;45867;52.480;6.056;2023-05-10T09:09:15;12.02;;;7.32;;
60014;SDS011;45867;52.480;6.056;2023-05-10T09:11:42;19.60;;;7.93;;
60014;SDS011;45867;52.480;6.056;2023-05-10T09:14:09;15.35;;;7.88;;
60014;SDS011;45867;52.480;6.056;2023-05-10T09:16:34;18.08;;;7.53;;
60014;SDS011;45867;52.480;6.056;2023-05-10T09:19:00;17.25;;;7.90;;
60014;SDS011;45867;52.480;6.056;2023-05-10T09:21:25;19.52;;;7.70;;
60014;SDS011;45867;52.480;6.056;2023-05-10T09:23:51;14.18;;;7.20;;
60014;SDS011;45867;52.480;6.056;2023-05-10T09:26:21;15.23;;;7.85;;
60014;SDS011;45867;52.480;6.056;2023-05-10T09:28:54;15.68;;;7.95;;
60014;SDS011;45867;52.480;6.056;2023-05-10T09:31:21;16.73;;;7.72;;
60014;SDS011;45867;52.480;6.056;2023-05-10T09:33:48;14.05;;;6.90;;
60014;SDS011;45867;52.480;6.056;2023-05-10T09:36:14;17.20;;;7.10;;
60014;SDS011;45867;52.480;6.056;2023-05-10T09:38:47;12.23;;;6.85;;
60014;SDS011;45867;52.480;6.056;2023-05-10T09:41:20;16.58;;;7.30;;
60014;SDS011;45867;52.480;6.056;2023-05-10T09:43:46;15.73;;;7.22;;
60014;SDS011;45867;52.480;6.056;2023-05-10T09:46:12;16.00;;;7.88;;
60014;SDS011;45867;52.480;6.056;2023-05-10T09:48:56;12.73;;;6.78;;
60014;SDS011;45867;52.480;6.056;2023-05-10T09:51:22;12.60;;;6.68;;
60014;SDS011;45867;52.480;6.056;2023-05-10T09:54:08;17.00;;;7.25;;
60014;SDS011;45867;52.480;6.056;2023-05-10T09:56:42;13.40;;;6.95;;
60014;SDS011;45867;52.480;6.056;2023-05-10T09:59:10;12.43;;;7.28;;
60014;SDS011;45867;52.480;6.056;2023-05-10T10:01:36;11.32;;;6.90;;
60014;SDS011;45867;52.480;6.056;2023-05-10T10:04:03;13.32;;;6.85;;
60014;SDS011;45867;52.480;6.056;2023-05-10T10:06:34;12.25;;;6.65;;
60014;SDS011;45867;52.480;6.056;2023-05-10T10:09:00;14.40;;;7.07;;
60014;SDS011;45867;52.480;6.056;2023-05-10T10:11:26;10.40;;;6.63;;
60014;SDS011;45867;52.480;6.056;2023-05-10T10:13:52;13.52;;;6.78;;
60014;SDS011;45867;52.480;6.056;2023-05-10T10:16:18;15.27;;;7.25;;
60014;SDS011;45867;52.480;6.056;2023-05-10T10:18:45;13.02;;;6.47;;
60014;SDS011;45867;52.480;6.056;2023-05-10T10:21:12;12.30;;;6.68;;
60014;SDS011;45867;52.480;6.056;2023-05-10T10:23:38;13.95;;;6.63;;
60014;SDS011;45867;52.480;6.056;2023-05-10T10:26:04;12.20;;;6.45;;
60014;SDS011;45867;52.480;6.056;2023-05-10T10:28:34;13.85;;;7.05;;
60014;SDS011;45867;52.480;6.056;2023-05-10T10:34:06;17.05;;;7.50;;
60014;SDS011;45867;52.480;6.056;2023-05-10T10:36:33;14.18;;;7.13;;
60014;SDS011;45867;52.480;6.056;2023-05-10T10:39:11;13.75;;;7.00;;
60014;SDS011;45867;52.480;6.056;2023-05-10T10:41:57;17.17;;;7.32;;
60014;SDS011;45867;52.480;6.056;2023-05-10T10:49:31;15.82;;;7.25;;
60014;SDS011;45867;52.480;6.056;2023-05-10T10:55:08;12.20;;;6.68;;
60014;SDS011;45867;52.480;6.056;2023-05-10T10:57:46;15.52;;;6.45;;
60014;SDS011;45867;52.480;6.056;2023-05-10T11:00:28;12.15;;;6.60;;
60014;SDS011;45867;52.480;6.056;2023-05-10T11:05:40;16.13;;;7.43;;
60014;SDS011;45867;52.480;6.056;2023-05-10T11:08:19;11.85;;;6.80;;
60014;SDS011;45867;52.480;6.056;2023-05-10T11:13:32;12.98;;;7.57;;
60014;SDS011;45867;52.480;6.056;2023-05-10T11:18:51;16.55;;;7.55;;
60014;SDS011;45867;52.480;6.056;2023-05-10T11:21:33;13.63;;;7.50;;
60014;SDS011;45867;52.480;6.056;2023-05-10T11:23:59;15.05;;;7.90;;
60014;SDS011;45867;52.480;6.056;2023-05-10T11:26:32;12.80;;;7.10;;
60014;SDS011;45867;52.480;6.056;2023-05-10T11:28:59;14.45;;;7.97;;
60014;SDS011;45867;52.480;6.056;2023-05-10T11:31:27;17.02;;;8.30;;
60014;SDS011;45867;52.480;6.056;2023-05-10T11:33:57;13.93;;;8.00;;
60014;SDS011;45867;52.480;6.056;2023-05-10T11:36:25;18.47;;;8.30;;
60014;SDS011;45867;52.480;6.056;2023-05-10T11:38:52;17.33;;;8.50;;
60014;SDS011;45867;52.480;6.056;2023-05-10T11:41:19;16.13;;;8.70;;
60014;SDS011;45867;52.480;6.056;2023-05-10T11:43:52;19.42;;;8.88;;
60014;SDS011;45867;52.480;6.056;2023-05-10T11:46:19;21.45;;;8.60;;
60014;SDS011;45867;52.480;6.056;2023-05-10T11:48:46;16.15;;;9.13;;
60014;SDS011;45867;52.480;6.056;2023-05-10T11:51:15;20.83;;;9.20;;
60014;SDS011;45867;52.480;6.056;2023-05-10T11:53:40;15.32;;;9.00;;
60014;SDS011;45867;52.480;6.056;2023-05-10T11:56:06;18.50;;;8.90;;
60014;SDS011;45867;52.480;6.056;2023-05-10T11:58:33;18.15;;;9.07;;
60014;SDS011;45867;52.480;6.056;2023-05-10T12:00:59;23.95;;;9.02;;
60014;SDS011;45867;52.480;6.056;2023-05-10T12:03:26;19.10;;;8.88;;
60014;SDS011;45867;52.480;6.056;2023-05-10T12:05:53;16.83;;;8.95;;
60014;SDS011;45867;52.480;6.056;2023-05-10T12:08:22;22.17;;;8.57;;
60014;SDS011;45867;52.480;6.056;2023-05-10T12:10:49;15.15;;;8.07;;
60014;SDS011;45867;52.480;6.056;2023-05-10T12:13:15;15.15;;;7.90;;
60014;SDS011;45867;52.480;6.056;2023-05-10T12:15:42;11.80;;;7.38;;
60014;SDS011;45867;52.480;6.056;2023-05-10T12:18:09;15.77;;;8.02;;
60014;SDS011;45867;52.480;6.056;2023-05-10T12:20:35;15.32;;;8.15;;
60014;SDS011;45867;52.480;6.056;2023-05-10T12:23:01;15.88;;;7.93;;
60014;SDS011;45867;52.480;6.056;2023-05-10T12:25:35;17.02;;;7.53;;
60014;SDS011;45867;52.480;6.056;2023-05-10T12:28:05;14.10;;;7.53;;
60014;SDS011;45867;52.480;6.056;2023-05-10T12:30:33;12.70;;;7.57;;
60014;SDS011;45867;52.480;6.056;2023-05-10T12:33:13;12.98;;;7.22;;
60014;SDS011;45867;52.480;6.056;2023-05-10T12:35:48;16.17;;;7.90;;
60014;SDS011;45867;52.480;6.056;2023-05-10T12:38:29;14.48;;;7.47;;
60014;SDS011;45867;52.480;6.056;2023-05-10T12:40:58;16.38;;;7.55;;
60014;SDS011;45867;52.480;6.056;2023-05-10T12:43:25;15.23;;;7.40;;
60014;SDS011;45867;52.480;6.056;2023-05-10T12:45:50;14.43;;;7.65;;
60014;SDS011;45867;52.480;6.056;2023-05-10T12:48:15;17.92;;;7.78;;
60014;SDS011;45867;52.480;6.056;2023-05-10T12:50:41;16.35;;;7.85;;
60014;SDS011;45867;52.480;6.056;2023-05-10T12:53:06;15.68;;;7.32;;
60014;SDS011;45867;52.480;6.056;2023-05-10T12:55:32;15.23;;;7.88;;
60014;SDS011;45867;52.480;6.056;2023-05-10T12:57:57;18.40;;;7.88;;
60014;SDS011;45867;52.480;6.056;2023-05-10T13:00:22;13.90;;;7.05;;
60014;SDS011;45867;52.480;6.056;2023-05-10T13:02:48;14.95;;;7.72;;
60014;SDS011;45867;52.480;6.056;2023-05-10T13:05:13;21.73;;;7.75;;
60014;SDS011;45867;52.480;6.056;2023-05-10T13:07:39;16.05;;;7.55;;
60014;SDS011;45867;52.480;6.056;2023-05-10T13:10:05;15.70;;;7.55;;
60014;SDS011;45867;52.480;6.056;2023-05-10T13:12:31;15.55;;;7.25;;
60014;SDS011;45867;52.480;6.056;2023-05-10T13:14:56;18.95;;;7.68;;
60014;SDS011;45867;52.480;6.056;2023-05-10T13:17:22;22.83;;;8.38;;
60014;SDS011;45867;52.480;6.056;2023-05-10T13:19:47;26.52;;;8.77;;
60014;SDS011;45867;52.480;6.056;2023-05-10T13:22:13;15.32;;;8.13;;
60014;SDS011;45867;52.480;6.056;2023-05-10T13:24:38;14.60;;;7.85;;
60014;SDS011;45867;52.480;6.056;2023-05-10T13:27:03;13.50;;;7.65;;
60014;SDS011;45867;52.480;6.056;2023-05-10T13:29:29;14.80;;;6.57;;
60014;SDS011;45867;52.480;6.056;2023-05-10T13:31:54;12.50;;;7.22;;
60014;SDS011;45867;52.480;6.056;2023-05-10T13:34:19;14.98;;;6.80;;
60014;SDS011;45867;52.480;6.056;2023-05-10T13:36:45;10.63;;;6.82;;
60014;SDS011;45867;52.480;6.056;2023-05-10T13:39:11;12.02;;;6.90;;
60014;SDS011;45867;52.480;6.056;2023-05-10T13:41:37;11.15;;;7.18;;
60014;SDS011;45867;52.480;6.056;2023-05-10T13:44:02;15.65;;;7.28;;
60014;SDS011;45867;52.480;6.056;2023-05-10T13:46:28;11.65;;;6.82;;
60014;SDS011;45867;52.480;6.056;2023-05-10T13:48:54;14.40;;;6.78;;
60014;SDS011;45867;52.480;6.056;2023-05-10T13:51:20;12.65;;;6.43;;
60014;SDS011;45867;52.480;6.056;2023-05-10T13:53:45;11.15;;;7.07;;
60014;SDS011;45867;52.480;6.056;2023-05-10T13:56:12;12.57;;;7.43;;
60014;SDS011;45867;52.480;6.056;2023-05-10T13:58:37;11.27;;;6.65;;
60014;SDS011;45867;52.480;6.056;2023-05-10T14:01:03;14.65;;;6.40;;
60014;SDS011;45867;52.480;6.056;2023-05-10T14:03:29;12.02;;;6.18;;
60014;SDS011;45867;52.480;6.056;2023-05-10T14:05:55;11.15;;;5.75;;
60014;SDS011;45867;52.480;6.056;2023-05-10T14:08:20;11.25;;;5.43;;
60014;SDS011;45867;52.480;6.056;2023-05-10T14:10:46;9.88;;;5.63;;
60014;SDS011;45867;52.480;6.056;2023-05-10T14:13:12;10.25;;;5.45;;
60014;SDS011;45867;52.480;6.056;2023-05-10T14:15:37;9.70;;;5.63;;
60014;SDS011;45867;52.480;6.056;2023-05-10T14:18:02;10.07;;;6.18;;
60014;SDS011;45867;52.480;6.056;2023-05-10T14:20:28;13.48;;;6.35;;
60014;SDS011;45867;52.480;6.056;2023-05-10T14:22:54;12.68;;;6.35;;
60014;SDS011;45867;52.480;6.056;2023-05-10T14:25:19;11.73;;;6.50;;
60014;SDS011;45867;52.480;6.056;2023-05-10T14:27:45;11.13;;;6.43;;
60014;SDS011;45867;52.480;6.056;2023-05-10T14:30:10;11.52;;;6.97;;
60014;SDS011;45867;52.480;6.056;2023-05-10T14:32:36;11.20;;;6.50;;
60014;SDS011;45867;52.480;6.056;2023-05-10T14:35:02;11.52;;;7.18;;
60014;SDS011;45867;52.480;6.056;2023-05-10T14:37:28;14.70;;;7.68;;
60014;SDS011;45867;52.480;6.056;2023-05-10T14:39:53;11.52;;;6.90;;
60014;SDS011;45867;52.480;6.056;2023-05-10T14:42:19;12.38;;;7.03;;
60014;SDS011;45867;52.480;6.056;2023-05-10T14:44:44;11.68;;;7.10;;
60014;SDS011;45867;52.480;6.056;2023-05-10T14:47:09;12.30;;;6.70;;
60014;SDS011;45867;52.480;6.056;2023-05-10T14:49:35;20.05;;;7.05;;
60014;SDS011;45867;52.480;6.056;2023-05-10T14:52:00;19.00;;;6.75;;
60014;SDS011;45867;52.480;6.056;2023-05-10T14:54:28;13.38;;;7.22;;
60014;SDS011;45867;52.480;6.056;2023-05-10T14:56:54;12.38;;;7.25;;
60014;SDS011;45867;52.480;6.056;2023-05-10T14:59:20;11.82;;;6.95;;
60014;SDS011;45867;52.480;6.056;2023-05-10T15:01:45;12.32;;;7.10;;
60014;SDS011;45867;52.480;6.056;2023-05-10T15:04:10;12.73;;;6.88;;
60014;SDS011;45867;52.480;6.056;2023-05-10T15:06:37;15.75;;;6.68;;